createdAt,value
2018-07-07T00:01:05.836Z,97542.67
2018-07-07T00:06:00.313Z,97536.59
2018-07-07T00:10:58.948Z,97534.80
2018-07-07T00:15:53.481Z,97530.02
2018-07-07T00:20:47.957Z,97529.48
2018-07-07T00:25:42.425Z,97528.98
2018-07-07T00:30:36.983Z,97525.45
2018-07-07T00:35:31.495Z,97521.17
2018-07-07T00:40:25.988Z,97525.43
2018-07-07T00:45:20.498Z,97525.03
2018-07-07T00:50:15.028Z,97524.44
2018-07-07T00:55:09.581Z,97528.59
2018-07-07T01:00:04.165Z,97530.45
2018-07-07T01:04:58.719Z,97523.17
2018-07-07T01:09:53.313Z,97527.57
2018-07-07T01:14:48.189Z,97521.11
2018-07-07T01:19:42.688Z,97523.02
2018-07-07T01:24:37.241Z,97526.63
2018-07-07T01:29:31.753Z,97526.75
2018-07-07T01:34:26.248Z,97529.76
2018-07-07T01:39:20.849Z,97540.98
2018-07-07T01:44:15.320Z,97539.60
2018-07-07T01:49:09.804Z,97545.47
2018-07-07T01:54:04.380Z,97545.53
2018-07-07T01:58:58.961Z,97540.30
2018-07-07T02:03:53.553Z,97544.40
2018-07-07T02:08:48.041Z,97541.41
2018-07-07T02:13:42.609Z,97538.97
2018-07-07T02:18:37.125Z,97543.01
2018-07-07T02:23:31.636Z,97541.87
2018-07-07T02:28:26.128Z,97543.92
2018-07-07T02:33:20.593Z,97542.59
2018-07-07T02:38:15.086Z,97539.25
2018-07-07T02:43:09.631Z,97533.75
2018-07-07T02:48:04.111Z,97530.34
2018-07-07T02:52:58.561Z,97530.39
2018-07-07T02:57:53.029Z,97537.90
2018-07-07T03:02:47.457Z,97530.48
2018-07-07T03:07:41.943Z,97527.91
2018-07-07T03:12:36.413Z,97529.74
2018-07-07T03:17:31.196Z,97531.18
2018-07-07T03:22:25.684Z,97536.28
2018-07-07T03:27:20.162Z,97537.44
2018-07-07T03:32:14.650Z,97546.87
2018-07-07T03:37:09.170Z,97545.20
2018-07-07T03:42:03.710Z,97556.06
2018-07-07T03:46:58.200Z,97558.47
2018-07-07T03:51:52.701Z,97556.91
2018-07-07T03:56:47.212Z,97555.90
2018-07-07T04:01:41.696Z,97565.97
2018-07-07T04:06:36.193Z,97567.95
2018-07-07T04:11:30.757Z,97564.22
2018-07-07T04:16:25.252Z,97565.75
2018-07-07T04:21:19.798Z,97568.71
2018-07-07T04:26:14.002Z,97561.69
2018-07-07T04:31:08.521Z,97564.28
2018-07-07T04:36:03.031Z,97563.23
2018-07-07T04:40:57.564Z,97568.68
2018-07-07T04:45:52.095Z,97563.53
2018-07-07T04:50:46.298Z,97563.53
2018-07-07T04:55:40.788Z,97574.69
2018-07-07T05:00:35.358Z,97576.44
2018-07-07T05:05:29.917Z,97576.16
2018-07-07T05:10:24.474Z,97575.47
2018-07-07T05:15:19.040Z,97577.26
2018-07-07T05:20:13.685Z,97579.77
2018-07-07T05:25:08.382Z,97579.50
2018-07-07T05:30:02.961Z,97579.63
2018-07-07T05:34:57.459Z,97575.55
2018-07-07T05:39:52.039Z,97571.60
2018-07-07T05:44:46.302Z,97567.14
2018-07-07T05:49:40.857Z,97566.58
2018-07-07T05:54:35.477Z,97566.53
2018-07-07T05:59:30.248Z,97563.70
2018-07-07T06:04:24.842Z,97569.99
2018-07-07T06:09:19.383Z,97570.23
2018-07-07T06:14:14.011Z,97580.83
2018-07-07T06:19:08.951Z,97585.67
2018-07-07T06:24:03.664Z,97586.70
2018-07-07T06:28:58.343Z,97586.28
2018-07-07T06:33:53.033Z,97585.87
2018-07-07T06:38:47.641Z,97593.49
2018-07-07T06:43:42.290Z,97596.71
2018-07-07T06:48:36.532Z,97594.48
2018-07-07T06:53:30.883Z,97596.95
2018-07-07T06:58:25.786Z,97588.41
2018-07-07T07:03:20.411Z,97588.65
2018-07-07T07:08:15.015Z,97591.39
2018-07-07T07:13:09.609Z,97581.44
2018-07-07T07:18:04.413Z,97588.30
2018-07-07T07:22:58.965Z,97587.84
2018-07-07T07:27:53.809Z,97591.13
2018-07-07T07:32:48.606Z,97587.09
2018-07-07T07:37:43.453Z,97581.83
2018-07-07T07:42:38.462Z,97581.21
2018-07-07T07:47:33.093Z,97582.68
2018-07-07T07:52:27.768Z,97581.12
2018-07-07T07:57:22.441Z,97590.98
2018-07-07T08:02:17.258Z,97591.98
2018-07-07T08:07:11.965Z,97583.59
2018-07-07T08:12:06.869Z,97589.38
2018-07-07T08:17:01.485Z,97587.63
2018-07-07T08:21:56.190Z,97575.72
2018-07-07T08:26:50.709Z,97577.70
2018-07-07T08:31:45.260Z,97574.22
2018-07-07T08:36:39.821Z,97572.94
2018-07-07T08:41:34.605Z,97579.66
2018-07-07T08:46:29.707Z,97580.30
2018-07-07T08:51:24.270Z,97580.57
2018-07-07T08:56:18.865Z,97580.45
2018-07-07T09:01:13.606Z,97569.19
2018-07-07T09:06:08.471Z,97566.34
2018-07-07T09:11:03.193Z,97563.55
2018-07-07T09:15:58.345Z,97566.22
2018-07-07T09:20:52.932Z,97568.68
2018-07-07T09:25:47.536Z,97560.80
2018-07-07T09:30:42.098Z,97558.94
2018-07-07T09:35:37.048Z,97563.47
2018-07-07T09:40:31.594Z,97553.48
2018-07-07T09:45:26.392Z,97553.57
2018-07-07T09:50:20.956Z,97547.11
2018-07-07T09:55:15.218Z,97548.92
2018-07-07T10:00:14.742Z,97537.64
2018-07-07T10:05:09.504Z,97548.99
2018-07-07T10:10:04.134Z,97545.06
2018-07-07T10:14:59.561Z,97541.70
2018-07-07T10:19:54.136Z,97538.50
2018-07-07T10:24:49.649Z,97537.17
2018-07-07T10:29:43.903Z,97532.28
2018-07-07T10:34:38.509Z,97537.94
2018-07-07T10:39:33.033Z,97532.98
2018-07-07T10:44:27.577Z,97518.91
2018-07-07T10:49:22.262Z,97528.89
2018-07-07T10:54:16.945Z,97527.65
2018-07-07T10:59:11.544Z,97524.77
2018-07-07T11:04:06.125Z,97515.34
2018-07-07T11:09:00.774Z,97521.06
2018-07-07T11:13:55.352Z,97516.97
2018-07-07T11:18:50.053Z,97507.59
2018-07-07T11:23:45.268Z,97518.23
2018-07-07T11:28:40.837Z,97513.14
2018-07-07T11:33:35.414Z,97518.38
2018-07-07T11:38:30.029Z,97504.52
2018-07-07T11:43:24.662Z,97503.44
2018-07-07T11:48:19.688Z,97493.36
2018-07-07T11:53:14.340Z,97493.27
2018-07-07T11:58:09.036Z,97499.63
2018-07-07T12:03:03.657Z,97494.81
2018-07-07T12:08:13.315Z,97500.62
2018-07-07T12:12:53.845Z,97492.17
2018-07-07T12:17:48.585Z,97488.09
2018-07-07T12:22:42.914Z,97478.86
2018-07-07T12:27:37.799Z,97479.02
2018-07-07T12:32:32.409Z,97467.98
2018-07-07T12:37:27.031Z,97469.20
2018-07-07T12:42:21.805Z,97461.50
2018-07-07T12:47:16.443Z,97450.97
2018-07-07T12:52:11.167Z,97449.52
2018-07-07T12:57:06.038Z,97450.02
2018-07-07T13:02:00.504Z,97442.14
2018-07-07T13:06:55.256Z,97444.38
2018-07-07T13:11:51.119Z,97444.28
2018-07-07T13:16:45.897Z,97440.99
2018-07-07T13:21:41.467Z,97436.12
2018-07-07T13:26:36.450Z,97437.61
2018-07-07T13:31:31.873Z,97432.80
2018-07-07T13:36:26.182Z,97438.55
2018-07-07T13:41:21.107Z,97435.56
2018-07-07T13:46:15.849Z,97437.92
2018-07-07T13:51:11.266Z,97424.39
2018-07-07T13:56:06.152Z,97432.13
2018-07-07T14:01:00.941Z,97430.95
2018-07-07T14:05:55.444Z,97429.48
2018-07-07T14:10:50.013Z,97431.20
2018-07-07T14:15:46.218Z,97439.20
2018-07-07T14:20:40.873Z,97435.61
2018-07-07T14:25:35.669Z,97433.77
2018-07-07T14:30:30.507Z,97424.96
2018-07-07T14:35:25.398Z,97416.98
2018-07-07T14:40:21.098Z,97424.20
2018-07-07T14:45:18.529Z,97426.59
2018-07-07T14:50:13.925Z,97422.36
2018-07-07T14:55:09.420Z,97420.41
2018-07-07T15:00:04.145Z,97415.81
2018-07-07T15:04:58.892Z,97411.95
2018-07-07T15:09:53.465Z,97412.34
2018-07-07T15:14:48.137Z,97413.49
2018-07-07T15:19:42.965Z,97406.89
2018-07-07T15:24:37.574Z,97402.30
2018-07-07T15:29:32.329Z,97399.23
2018-07-07T15:34:27.553Z,97393.02
2018-07-07T15:39:22.532Z,97388.04
2018-07-07T15:44:17.660Z,97384.92
2018-07-07T15:49:12.719Z,97378.69
2018-07-07T15:54:07.061Z,97385.77
2018-07-07T15:59:01.613Z,97384.81
2018-07-07T16:03:57.737Z,97381.63
2018-07-07T16:08:52.465Z,97382.26
2018-07-07T16:13:49.018Z,97373.75
2018-07-07T16:18:44.056Z,97371.69
2018-07-07T16:23:38.360Z,97366.05
2018-07-07T16:28:33.224Z,97369.08
2018-07-07T16:33:28.025Z,97356.69
2018-07-07T16:38:22.561Z,97360.41
2018-07-07T16:43:17.406Z,97345.30
2018-07-07T16:48:12.921Z,97348.93
2018-07-07T16:53:07.575Z,97346.66
2018-07-07T16:58:02.178Z,97340.63
2018-07-07T17:02:56.726Z,97349.73
2018-07-07T17:07:51.394Z,97349.72
2018-07-07T17:12:45.949Z,97342.09
2018-07-07T17:17:40.625Z,97350.16
2018-07-07T17:22:35.813Z,97347.89
2018-07-07T17:27:30.516Z,97350.75
2018-07-07T17:32:25.342Z,97353.88
2018-07-07T17:37:21.750Z,97352.88
2018-07-07T17:42:16.652Z,97356.91
2018-07-07T17:47:11.271Z,97353.05
2018-07-07T17:52:05.538Z,97351.34
2018-07-07T17:57:00.839Z,97357.25
2018-07-07T18:01:55.524Z,97354.06
2018-07-07T18:06:51.273Z,97353.11
2018-07-07T18:11:45.881Z,97353.79
2018-07-07T18:16:40.120Z,97353.72
2018-07-07T18:21:35.305Z,97359.67
2018-07-07T18:26:29.995Z,97359.24
2018-07-07T18:31:24.872Z,97359.88
2018-07-07T18:36:19.446Z,97365.94
2018-07-07T18:41:14.113Z,97361.38
2018-07-07T18:46:09.253Z,97362.54
2018-07-07T18:51:05.009Z,97360.52
2018-07-07T18:55:59.689Z,97359.52
2018-07-07T19:00:54.357Z,97357.63
2018-07-07T19:05:48.570Z,97365.50
2018-07-07T19:10:43.203Z,97368.53
2018-07-07T19:15:37.753Z,97375.63
2018-07-07T19:20:37.569Z,97379.75
2018-07-07T19:25:37.279Z,97380.09
2018-07-07T19:30:31.627Z,97376.44
2018-07-07T19:35:30.914Z,97382.22
2018-07-07T19:40:26.006Z,97389.34
2018-07-07T19:45:20.684Z,97402.02
2018-07-07T19:50:15.343Z,97404.96
2018-07-07T19:55:10.361Z,97400.88
2018-07-07T20:00:05.186Z,97406.67
2018-07-07T20:04:59.769Z,97411.61
2018-07-07T20:09:54.640Z,97414.34
2018-07-07T20:14:49.653Z,97413.01
2018-07-07T20:21:04.241Z,97405.70
2018-07-07T20:26:04.639Z,97416.31
2018-07-07T20:30:59.656Z,97419.12
2018-07-07T20:35:54.461Z,97421.03
2018-07-07T20:40:49.116Z,97416.20
2018-07-07T20:45:43.813Z,97423.79
2018-07-07T20:50:38.614Z,97426.77
2018-07-07T20:55:33.351Z,97430.30
2018-07-07T21:00:28.060Z,97433.30
2018-07-07T21:05:22.597Z,97432.02
2018-07-07T21:10:17.174Z,97431.80
2018-07-07T21:15:11.708Z,97430.48
2018-07-07T21:20:06.799Z,97436.09
2018-07-07T21:25:01.673Z,97437.46
2018-07-07T21:29:56.333Z,97435.09
2018-07-07T21:34:50.947Z,97430.29
2018-07-07T21:39:45.543Z,97429.27
2018-07-07T21:44:40.145Z,97427.67
2018-07-07T21:49:34.811Z,97432.50
2018-07-07T21:54:29.027Z,97431.73
2018-07-07T21:59:24.364Z,97424.55
2018-07-07T22:04:24.261Z,97432.81
2018-07-07T22:09:18.800Z,97434.39
2018-07-07T22:14:13.365Z,97431.73
2018-07-07T22:19:07.960Z,97428.77
2018-07-07T22:24:02.940Z,97430.11
2018-07-07T22:28:57.533Z,97434.64
2018-07-07T22:33:52.144Z,97432.50
2018-07-07T22:38:51.963Z,97424.51
2018-07-07T22:43:47.598Z,97430.89
2018-07-07T22:48:42.145Z,97414.65
2018-07-07T22:53:36.778Z,97422.36
2018-07-07T22:58:31.350Z,97417.31
2018-07-07T23:03:25.925Z,97422.36
2018-07-07T23:08:20.455Z,97422.88
2018-07-07T23:13:15.017Z,97411.95
2018-07-07T23:18:09.745Z,97407.95
2018-07-07T23:23:04.345Z,97401.57
2018-07-07T23:27:58.907Z,97405.02
2018-07-07T23:32:53.540Z,97401.58
2018-07-07T23:37:48.068Z,97404.23
2018-07-07T23:42:42.674Z,97410.84
2018-07-07T23:47:37.333Z,97408.67
2018-07-07T23:52:31.935Z,97407.59
2018-07-07T23:57:26.489Z,97408.05
